Time;durP1;ratioP1;P1;durP2;ratioP2;P2;SDS_P1;SDS_P2;PMS_P1;PMS_P2;Temp;Humidity;BMP_temperature;BMP_pressure;BME280_temperature;BME280_humidity;BME280_pressure;Samples;Min_cycle;Max_cycle;Signal;HPM_P1;HPM_P2
2021/06/27 00:00:00;;;;;;;7.80;6.45;;;;;;;16.01;62.55;100277.66;153809;1101;103142;-67
2021/06/27 00:03:03;;;;;;;8.13;6.80;;;;;;;15.99;62.56;100281.53;153923;1096;103155;-66
2021/06/27 00:06:07;;;;;;;7.03;6.33;;;;;;;15.99;62.74;100285.05;153904;1095;103224;-68
2021/06/27 00:09:10;;;;;;;6.83;6.13;;;;;;;15.99;62.62;100287.73;153880;1101;103224;-66
2021/06/27 00:12:14;;;;;;;7.30;6.60;;;;;;;15.94;62.42;100284.80;153829;1101;103136;-69
2021/06/27 00:15:19;;;;;;;7.15;6.45;;;;;;;15.90;62.58;100287.02;153771;1096;103155;-68
2021/06/27 00:18:25;;;;;;;7.30;6.60;;;;;;;15.84;62.48;100294.99;153794;1101;103147;-68
2021/06/27 00:21:28;;;;;;;7.53;6.73;;;;;;;15.81;62.41;100285.45;153835;1101;103231;-67
2021/06/27 00:24:31;;;;;;;6.63;5.93;;;;;;;15.77;62.40;100288.71;153834;1101;103219;-68
2021/06/27 00:27:34;;;;;;;9.67;6.37;;;;;;;15.75;62.01;100285.38;153852;1101;103589;-68
2021/06/27 00:30:40;;;;;;;6.53;5.83;;;;;;;15.73;62.60;100282.86;153822;1096;103225;-67
2021/06/27 00:33:42;;;;;;;7.20;6.50;;;;;;;15.71;62.80;100280.32;153821;1095;103173;-68
2021/06/27 00:36:45;;;;;;;7.13;6.27;;;;;;;15.68;62.88;100282.55;153794;1094;103219;-68
2021/06/27 00:39:48;;;;;;;7.13;6.23;;;;;;;15.67;62.42;100292.48;153788;1097;103187;-69
2021/06/27 00:42:52;;;;;;;7.57;6.87;;;;;;;15.65;62.33;100293.70;153857;1101;103228;-68
2021/06/27 00:45:56;;;;;;;7.50;6.07;;;;;;;15.38;62.42;100261.03;153838;1101;103225;-68
2021/06/27 00:48:59;;;;;;;7.47;6.67;;;;;;;15.55;62.41;100290.42;153824;1096;103158;-69
2021/06/27 00:52:02;;;;;;;7.70;6.80;;;;;;;15.51;62.88;100295.33;153837;1101;103126;-70
2021/06/27 00:55:08;;;;;;;7.75;6.90;;;;;;;15.43;62.57;100293.56;153834;1096;103221;-68
2021/06/27 00:58:11;;;;;;;8.10;7.00;;;;;;;15.37;63.12;100291.61;153926;1101;103224;-68
2021/06/27 01:01:14;;;;;;;8.07;6.80;;;;;;;15.34;63.00;100283.08;153869;1095;103112;-67
2021/06/27 01:04:17;;;;;;;6.23;5.63;;;;;;;15.29;63.00;100283.64;153823;1097;103131;-68
2021/06/27 01:07:20;;;;;;;7.25;5.60;;;;;;;15.29;62.80;100287.16;153830;1097;104646;-68
2021/06/27 01:10:24;;;;;;;6.90;6.20;;;;;;;15.30;62.80;100288.84;153827;1101;103179;-69
2021/06/27 01:13:27;;;;;;;7.27;6.23;;;;;;;15.27;62.90;100283.81;153869;1101;103214;-68
2021/06/27 01:16:30;;;;;;;7.50;6.50;;;;;;;15.26;62.78;100290.23;153858;1097;103235;-67
2021/06/27 01:19:34;;;;;;;7.23;6.30;;;;;;;15.26;62.73;100287.54;153822;1095;103231;-66
2021/06/27 01:22:37;;;;;;;8.47;6.37;;;;;;;15.23;62.85;100293.27;153855;1096;104624;-67
2021/06/27 01:25:41;;;;;;;8.07;6.70;;;;;;;15.19;62.69;100291.14;153787;1096;103610;-66
2021/06/27 01:28:44;;;;;;;7.07;6.37;;;;;;;15.13;63.16;100287.33;153881;1101;103199;-66
2021/06/27 01:31:48;;;;;;;7.45;6.48;;;;;;;15.06;62.97;100297.95;153818;1095;103185;-66
2021/06/27 01:34:51;;;;;;;8.23;6.90;;;;;;;15.03;63.11;100289.41;153760;1097;103129;-66
2021/06/27 01:37:56;;;;;;;7.33;6.63;;;;;;;14.99;62.97;100301.55;153832;1101;103107;-66
2021/06/27 01:40:59;;;;;;;7.90;6.45;;;;;;;14.97;63.22;100287.45;153853;1096;103375;-66
2021/06/27 01:44:02;;;;;;;7.58;5.80;;;;;;;14.91;63.03;100289.87;153844;1101;103121;-67
2021/06/27 01:47:06;;;;;;;5.73;4.97;;;;;;;14.90;63.33;100287.36;153814;1101;103123;-67
2021/06/27 01:50:12;;;;;;;6.67;5.97;;;;;;;14.91;63.08;100283.64;153757;1101;103122;-66
2021/06/27 01:53:17;;;;;;;6.70;6.00;;;;;;;14.88;62.89;100284.84;153816;1097;103246;-69
2021/06/27 01:56:20;;;;;;;8.17;6.33;;;;;;;14.87;62.94;100285.84;153827;1101;103198;-66
2021/06/27 01:59:23;;;;;;;6.70;6.00;;;;;;;14.84;63.05;100282.71;153819;1101;103198;-68
2021/06/27 02:02:26;;;;;;;7.97;6.47;;;;;;;14.80;62.92;100282.23;153765;1097;103733;-66
2021/06/27 02:05:30;;;;;;;8.50;6.30;;;;;;;14.76;63.17;100275.55;153843;1101;103163;-65
2021/06/27 02:08:35;;;;;;;7.20;6.43;;;;;;;14.76;63.10;100280.92;153818;1096;103107;-66
2021/06/27 02:11:39;;;;;;;6.60;6.00;;;;;;;14.71;63.08;100283.30;153898;1101;103227;-66
2021/06/27 02:14:42;;;;;;;6.83;6.13;;;;;;;14.66;63.19;100280.31;153866;1101;103253;-68
2021/06/27 02:17:54;;;;;;;8.10;6.33;;;;;;;14.63;63.08;100281.52;153795;1096;103098;-66
2021/06/27 02:20:59;;;;;;;7.47;6.47;;;;;;;14.61;63.37;100283.55;153862;1101;103224;-66
2021/06/27 02:24:04;;;;;;;7.95;6.35;;;;;;;14.58;63.22;100288.44;153809;1095;103198;-66
2021/06/27 02:27:08;;;;;;;7.33;6.60;;;;;;;14.51;63.25;100282.89;153906;1101;103344;-65
2021/06/27 02:30:14;;;;;;;7.17;5.13;;;;;;;14.45;63.16;100289.84;153830;1101;103238;-67
2021/06/27 02:33:18;;;;;;;7.27;5.33;;;;;;;14.47;63.22;100303.91;154011;1101;103208;-66
2021/06/27 02:36:21;;;;;;;6.07;5.47;;;;;;;14.51;63.26;100294.48;153806;1097;103224;-68
2021/06/27 02:39:23;;;;;;;6.20;5.60;;;;;;;14.56;63.29;100296.63;153980;1096;103228;-66
2021/06/27 02:42:27;;;;;;;8.53;6.50;;;;;;;14.59;63.42;100292.77;153845;1101;103208;-66
2021/06/27 02:45:30;;;;;;;6.73;5.73;;;;;;;14.61;63.30;100298.83;153841;1101;103151;-65
2021/06/27 02:48:33;;;;;;;6.63;5.75;;;;;;;14.59;63.61;100295.45;153822;1096;103134;-65
2021/06/27 02:51:36;;;;;;;6.53;5.90;;;;;;;14.56;63.24;100295.80;153763;1101;103811;-65
2021/06/27 02:54:39;;;;;;;6.77;6.07;;;;;;;14.56;63.59;100291.26;153819;1097;103225;-67
2021/06/27 02:57:43;;;;;;;6.77;5.83;;;;;;;14.59;63.52;100292.77;153777;1101;103276;-67
2021/06/27 03:00:45;;;;;;;7.00;6.30;;;;;;;14.60;63.54;100289.09;153892;1101;103144;-65
2021/06/27 03:03:51;;;;;;;7.30;6.40;;;;;;;14.61;63.37;100296.14;153820;1101;103242;-65
2021/06/27 03:06:54;;;;;;;7.80;6.80;;;;;;;14.65;63.54;100295.59;153879;1101;103499;-65
2021/06/27 03:09:56;;;;;;;7.60;6.33;;;;;;;14.67;63.26;100298.94;153819;1097;103147;-66
2021/06/27 03:12:59;;;;;;;6.50;5.33;;;;;;;14.72;63.51;100299.25;153839;1096;103283;-68
2021/06/27 03:16:03;;;;;;;5.80;5.20;;;;;;;14.85;63.52;100301.31;153838;1097;103131;-70
2021/06/27 03:19:06;;;;;;;8.40;5.87;;;;;;;15.08;63.31;100292.40;153854;1101;103521;-68
2021/06/27 03:22:09;;;;;;;6.07;5.37;;;;;;;15.34;63.30;100297.38;153795;1101;103168;-68
2021/06/27 03:25:14;;;;;;;7.17;6.10;;;;;;;15.64;63.46;100302.77;153852;1097;103242;-67
2021/06/27 03:28:18;;;;;;;6.50;5.90;;;;;;;15.92;62.99;100292.23;153859;1101;103347;-67
2021/06/27 03:31:21;;;;;;;7.33;5.97;;;;;;;16.21;63.12;100293.20;153957;1101;103144;-65
2021/06/27 03:34:24;;;;;;;7.60;6.80;;;;;;;16.43;62.83;100292.20;153815;1101;103161;-68
2021/06/27 03:37:27;;;;;;;6.97;6.30;;;;;;;16.68;62.80;100281.06;153823;1101;103147;-67
2021/06/27 03:40:30;;;;;;;6.90;6.30;;;;;;;16.94;62.49;100279.69;153807;1101;103120;-71
2021/06/27 03:43:33;;;;;;;6.57;5.80;;;;;;;17.17;62.38;100288.38;153790;1096;103228;-67
2021/06/27 03:46:36;;;;;;;5.70;4.97;;;;;;;17.44;62.29;100288.57;153929;1101;103142;-67
2021/06/27 03:49:39;;;;;;;6.37;5.77;;;;;;;17.74;62.47;100281.05;153813;1097;103132;-67
2021/06/27 03:52:42;;;;;;;6.50;5.50;;;;;;;17.95;62.31;100277.45;153807;1101;103236;-67
2021/06/27 03:55:45;;;;;;;6.90;6.20;;;;;;;18.23;62.11;100276.53;153863;1101;103249;-67
2021/06/27 03:58:48;;;;;;;6.60;5.87;;;;;;;18.49;62.02;100277.64;153795;1096;103224;-67
2021/06/27 04:01:51;;;;;;;6.30;5.70;;;;;;;18.73;61.80;100278.94;153837;1097;103169;-68
2021/06/27 04:04:54;;;;;;;6.50;5.90;;;;;;;18.92;61.94;100278.16;153816;1101;103168;-68
2021/06/27 04:07:58;;;;;;;6.00;5.40;;;;;;;19.07;61.92;100264.40;153783;1101;103168;-67
2021/06/27 04:11:02;;;;;;;5.97;5.43;;;;;;;19.27;61.81;100267.11;153898;1101;103224;-68
2021/06/27 04:14:05;;;;;;;6.47;5.87;;;;;;;19.47;61.83;100272.48;153838;1101;103183;-68
2021/06/27 04:17:09;;;;;;;7.40;6.70;;;;;;;19.66;61.62;100275.37;153843;1101;103220;-67
2021/06/27 04:20:14;;;;;;;7.10;6.40;;;;;;;19.83;61.86;100273.88;153810;1096;103102;-67
2021/06/27 04:23:17;;;;;;;7.00;6.40;;;;;;;19.99;61.47;100273.39;153853;1097;103235;-66
2021/06/27 04:26:20;;;;;;;8.77;7.47;;;;;;;20.16;61.73;100268.32;153820;1101;103224;-66
2021/06/27 04:29:23;;;;;;;9.10;8.10;;;;;;;20.37;61.37;100275.30;153796;1101;103071;-68
2021/06/27 04:32:26;;;;;;;8.33;7.60;;;;;;;20.58;61.52;100265.18;153859;1096;103294;-65
2021/06/27 04:35:29;;;;;;;9.30;8.40;;;;;;;20.76;61.24;100262.56;153881;1095;103196;-65
2021/06/27 04:38:32;;;;;;;11.83;9.40;;;;;;;20.92;61.26;100263.92;153764;1096;103216;-67
2021/06/27 04:41:36;;;;;;;12.40;11.10;;;;;;;20.81;60.55;100261.92;153886;1101;103113;-66
2021/06/27 04:44:39;;;;;;;13.53;12.13;;;;;;;20.72;60.25;100258.63;153863;1095;103275;-66
2021/06/27 04:47:42;;;;;;;12.87;11.57;;;;;;;20.54;59.86;100262.07;153865;1095;103131;-66
2021/06/27 04:50:46;;;;;;;12.20;11.00;;;;;;;20.56;60.44;100259.15;153876;1095;103147;-66
2021/06/27 04:53:49;;;;;;;11.70;9.90;;;;;;;20.79;60.64;100259.42;153782;1097;103221;-66
2021/06/27 04:56:52;;;;;;;12.30;11.00;;;;;;;21.03;60.55;100259.64;153856;1101;103222;-69
2021/06/27 04:59:55;;;;;;;11.70;10.50;;;;;;;21.21;60.58;100258.02;153805;1096;103266;-68
2021/06/27 05:03:00;;;;;;;14.95;12.30;;;;;;;21.34;60.51;100257.89;153816;1101;103228;-68
2021/06/27 05:06:04;;;;;;;11.70;10.57;;;;;;;21.46;60.44;100261.58;153778;1096;103131;-69
2021/06/27 05:09:06;;;;;;;12.47;10.97;;;;;;;21.60;60.24;100256.02;153870;1101;103117;-69
2021/06/27 05:12:10;;;;;;;12.70;11.43;;;;;;;21.71;59.62;100252.52;153911;1101;103499;-69
2021/06/27 05:15:15;;;;;;;14.07;12.03;;;;;;;21.71;59.03;100257.95;153884;1097;103197;-69
2021/06/27 05:18:19;;;;;;;13.30;11.93;;;;;;;21.64;58.95;100251.78;153912;1097;103142;-70
2021/06/27 05:21:22;;;;;;;12.93;11.00;;;;;;;21.63;59.39;100259.08;153879;1095;103131;-71
2021/06/27 05:24:25;;;;;;;10.90;9.90;;;;;;;21.73;59.12;100258.58;153883;1101;103230;-67
2021/06/27 05:27:28;;;;;;;10.53;9.53;;;;;;;21.87;59.11;100256.53;153823;1101;103567;-73
2021/06/27 05:30:31;;;;;;;12.53;11.30;;;;;;;21.96;57.09;100253.27;153811;1101;103279;-66
2021/06/27 05:33:34;;;;;;;12.10;10.95;;;;;;;21.86;58.73;100252.14;153833;1097;103234;-72
2021/06/27 05:36:37;;;;;;;11.87;10.63;;;;;;;21.86;58.79;100246.70;153766;1101;103142;-72
2021/06/27 05:39:40;;;;;;;11.33;10.23;;;;;;;21.88;58.74;100252.74;153817;1095;103102;-69
2021/06/27 05:42:43;;;;;;;11.60;10.40;;;;;;;21.96;58.58;100238.87;153852;1101;103224;-69
2021/06/27 05:45:46;;;;;;;10.50;9.50;;;;;;;22.01;59.22;100235.45;153842;1101;103262;-65
2021/06/27 05:48:49;;;;;;;12.13;10.90;;;;;;;22.15;58.63;100248.64;153859;1101;103190;-65
2021/06/27 05:51:52;;;;;;;10.60;9.60;;;;;;;22.23;58.59;100249.36;153799;1101;104689;-67
2021/06/27 05:54:55;;;;;;;14.00;9.80;;;;;;;22.24;57.77;100253.75;153807;1096;103107;-69
2021/06/27 05:57:58;;;;;;;11.43;9.37;;;;;;;22.13;57.31;100249.91;153833;1096;103128;-67
2021/06/27 06:01:00;;;;;;;11.27;10.17;;;;;;;22.02;57.71;100248.81;153843;1097;103333;-66
2021/06/27 06:04:04;;;;;;;9.97;8.97;;;;;;;21.98;57.97;100252.20;153823;1101;103286;-67
2021/06/27 06:07:07;;;;;;;9.63;8.63;;;;;;;22.07;58.43;100256.27;153916;1101;103145;-67
2021/06/27 06:10:12;;;;;;;11.00;8.27;;;;;;;22.20;58.24;100261.53;153758;1101;103163;-67
2021/06/27 06:13:15;;;;;;;9.83;8.90;;;;;;;22.19;57.34;100257.17;153874;1101;103224;-68
2021/06/27 06:16:17;;;;;;;9.77;8.43;;;;;;;22.10;56.44;100266.70;153787;1101;103209;-67
2021/06/27 06:19:20;;;;;;;9.10;7.85;;;;;;;22.11;57.75;100258.31;153814;1097;103502;-72
2021/06/27 06:22:24;;;;;;;10.30;8.80;;;;;;;22.16;56.25;100271.20;153834;1101;103219;-70
2021/06/27 06:25:27;;;;;;;9.13;6.37;;;;;;;22.22;57.31;100269.46;153802;1096;103252;-68
2021/06/27 06:28:30;;;;;;;8.43;7.60;;;;;;;22.29;57.15;100271.06;153846;1097;103158;-69
2021/06/27 06:31:32;;;;;;;9.70;8.03;;;;;;;22.26;56.22;100271.51;153774;1095;103293;-68
2021/06/27 06:34:35;;;;;;;8.90;7.93;;;;;;;22.19;56.62;100270.77;153902;1096;103224;-66
2021/06/27 06:37:38;;;;;;;8.70;7.77;;;;;;;22.14;56.32;100273.33;153888;1101;103105;-68
2021/06/27 06:40:42;;;;;;;9.40;7.70;;;;;;;22.12;56.29;100270.83;153852;1096;103202;-67
2021/06/27 06:43:45;;;;;;;8.30;7.47;;;;;;;22.08;54.79;100264.20;153853;1096;103230;-72
2021/06/27 06:46:48;;;;;;;9.00;7.57;;;;;;;22.02;54.84;100265.12;153985;1101;103147;-66
2021/06/27 06:49:51;;;;;;;8.27;7.13;;;;;;;22.07;56.07;100267.14;153839;1096;103142;-69
2021/06/27 06:52:54;;;;;;;8.10;7.30;;;;;;;22.10;55.30;100263.98;153813;1095;103594;-68
2021/06/27 06:55:57;;;;;;;7.63;5.87;;;;;;;22.10;51.81;100266.70;153823;1097;103564;-68
2021/06/27 06:59:00;;;;;;;7.50;6.50;;;;;;;22.10;53.27;100256.64;153808;1096;103227;-67
2021/06/27 07:02:03;;;;;;;7.25;6.50;;;;;;;22.07;54.54;100270.67;153859;1101;103304;-66
2021/06/27 07:05:09;;;;;;;6.37;5.77;;;;;;;22.11;52.61;100271.91;153822;1101;103131;-69
2021/06/27 07:08:12;;;;;;;7.45;6.15;;;;;;;22.09;53.33;100275.89;153839;1097;103146;-68
2021/06/27 07:11:15;;;;;;;6.50;5.80;;;;;;;22.11;53.21;100268.34;153812;1097;103526;-67
2021/06/27 07:14:18;;;;;;;7.30;6.07;;;;;;;22.14;53.96;100270.61;153852;1101;103365;-69
2021/06/27 07:17:21;;;;;;;6.30;5.50;;;;;;;22.13;51.54;100277.09;153858;1095;103202;-72
2021/06/27 07:20:24;;;;;;;6.00;4.87;;;;;;;22.19;53.83;100267.19;154037;1095;103540;-72
2021/06/27 07:23:27;;;;;;;5.63;4.73;;;;;;;22.18;53.18;100268.27;153950;1095;103230;-73
2021/06/27 07:26:30;;;;;;;5.10;4.60;;;;;;;22.18;52.62;100262.83;153815;1101;103230;-66
2021/06/27 07:29:34;;;;;;;6.57;4.50;;;;;;;22.27;50.98;100270.47;153775;1101;104744;-67
2021/06/27 07:32:37;;;;;;;4.77;4.30;;;;;;;22.36;50.63;100276.39;153851;1096;103492;-66
2021/06/27 07:35:40;;;;;;;5.10;4.40;;;;;;;22.49;51.50;100269.95;153776;1101;103228;-69
2021/06/27 07:38:43;;;;;;;4.60;4.20;;;;;;;22.59;52.16;100272.92;153807;1097;103099;-64
2021/06/27 07:41:46;;;;;;;3.85;3.30;;;;;;;22.65;51.32;100272.02;154138;1101;103123;-68
2021/06/27 07:44:49;;;;;;;4.83;4.10;;;;;;;22.65;49.53;100280.19;153773;1101;103217;-67
2021/06/27 07:47:52;;;;;;;6.70;4.30;;;;;;;22.61;49.54;100281.68;153841;1101;103292;-69
2021/06/27 07:50:54;;;;;;;5.67;4.23;;;;;;;22.54;48.20;100283.69;153821;1095;103132;-68
2021/06/27 07:53:58;;;;;;;4.97;4.30;;;;;;;22.62;50.43;100285.25;153807;1095;103132;-68
2021/06/27 07:57:01;;;;;;;4.63;4.10;;;;;;;22.73;49.38;100277.13;153760;1101;103224;-67
2021/06/27 08:00:10;;;;;;;5.13;4.63;;;;;;;22.80;50.39;100274.28;153904;1101;103339;-66
2021/06/27 08:03:14;;;;;;;;;;;;;;;22.90;50.69;100265.55;153798;1101;103125;-67
2021/06/27 08:06:17;;;;;;;4.70;3.83;;;;;;;22.97;49.19;100282.59;153957;1096;103120;-70
2021/06/27 08:09:20;;;;;;;4.67;3.80;;;;;;;23.04;48.22;100275.20;153870;1096;103104;-72
2021/06/27 08:12:23;;;;;;;4.45;3.48;;;;;;;23.12;49.74;100276.74;153834;1101;103145;-70
2021/06/27 08:15:26;;;;;;;3.67;3.37;;;;;;;23.09;48.18;100280.73;153902;1096;103174;-64
2021/06/27 08:18:29;;;;;;;4.53;3.07;;;;;;;23.14;49.51;100288.22;154092;1096;103286;-73
2021/06/27 08:21:32;;;;;;;4.37;3.10;;;;;;;23.27;49.83;100284.45;153776;1101;103218;-67
2021/06/27 08:24:35;;;;;;;3.83;3.20;;;;;;;23.33;49.12;100287.05;153720;1101;103160;-63
2021/06/27 08:27:39;;;;;;;3.00;2.80;;;;;;;23.41;45.82;100288.58;153726;1095;103195;-64
2021/06/27 08:30:42;;;;;;;2.60;2.40;;;;;;;23.40;45.91;100276.02;153855;1101;103165;-66
2021/06/27 08:33:45;;;;;;;4.47;2.83;;;;;;;23.49;45.70;100290.94;153809;1101;103250;-66
2021/06/27 08:36:48;;;;;;;3.17;2.53;;;;;;;23.47;47.59;100276.73;153818;1097;103135;-67
2021/06/27 08:39:50;;;;;;;3.00;2.70;;;;;;;23.55;47.18;100286.44;153799;1101;103132;-66
2021/06/27 08:42:54;;;;;;;3.17;2.53;;;;;;;23.56;47.60;100276.36;153770;1096;103151;-66
2021/06/27 08:45:59;;;;;;;2.77;2.50;;;;;;;23.60;45.11;100285.73;153987;1096;103128;-66
2021/06/27 08:49:03;;;;;;;5.47;2.80;;;;;;;23.52;44.45;100282.30;153897;1101;103270;-66
2021/06/27 08:52:13;;;;;;;3.63;2.43;;;;;;;23.47;45.84;100279.45;153831;1097;103250;-67
2021/06/27 08:55:16;;;;;;;3.77;2.40;;;;;;;23.47;44.14;100276.73;153810;1101;103121;-66
2021/06/27 08:58:19;;;;;;;3.10;2.43;;;;;;;23.52;46.27;100284.20;153805;1101;104374;-67
2021/06/27 09:01:23;;;;;;;3.75;2.80;;;;;;;23.58;43.92;100283.25;153839;1097;103259;-65
2021/06/27 09:04:26;;;;;;;3.20;2.30;;;;;;;23.65;44.78;100277.66;153869;1101;103489;-68
2021/06/27 09:07:32;;;;;;;2.30;2.10;;;;;;;23.67;45.88;100278.25;153865;1097;103144;-65
2021/06/27 09:10:34;;;;;;;2.40;2.20;;;;;;;23.72;45.54;100281.09;153826;1097;103227;-67
2021/06/27 09:13:39;;;;;;;2.30;2.10;;;;;;;23.71;44.24;100266.65;153766;1101;103154;-66
2021/06/27 09:16:42;;;;;;;4.40;2.15;;;;;;;23.79;45.13;100279.10;153848;1095;103596;-67
2021/06/27 09:20:05;;;;;;;2.50;1.95;;;;;;;23.84;45.55;100271.02;153761;1101;103277;-66
2021/06/27 09:23:09;;;;;;;2.30;2.10;;;;;;;23.99;45.45;100277.88;153841;1101;103221;-71
2021/06/27 09:26:24;;;;;;;2.83;2.07;;;;;;;24.10;45.44;100274.28;153837;1101;103493;-67
2021/06/27 09:29:27;;;;;;;4.30;2.20;;;;;;;24.16;42.37;100273.31;153785;1096;103176;-67
2021/06/27 09:32:29;;;;;;;2.67;2.30;;;;;;;24.05;42.42;100279.63;153785;1096;103219;-67
2021/06/27 09:35:54;;;;;;;3.00;2.20;;;;;;;24.06;44.20;100279.39;153776;1101;103194;-71
2021/06/27 09:38:57;;;;;;;2.67;2.00;;;;;;;23.99;44.58;100280.59;153971;1101;103128;-67
2021/06/27 09:42:04;;;;;;;3.10;2.30;;;;;;;23.96;43.02;100267.44;153881;1101;103146;-67
2021/06/27 09:45:09;;;;;;;2.43;2.20;;;;;;;24.04;42.16;100275.26;153797;1101;103128;-68
2021/06/27 09:48:12;;;;;;;2.50;2.30;;;;;;;24.05;43.35;100266.00;153883;1097;104625;-70
2021/06/27 09:51:16;;;;;;;3.30;2.60;;;;;;;23.95;43.76;100260.34;153762;1101;103274;-68
2021/06/27 09:54:22;;;;;;;2.60;2.27;;;;;;;24.03;42.66;100268.14;153869;1101;103194;-70
2021/06/27 09:57:25;;;;;;;2.60;2.40;;;;;;;24.03;42.71;100268.14;154021;1101;103161;-71
2021/06/27 10:00:34;;;;;;;2.83;2.63;;;;;;;24.00;42.68;100263.16;154019;1096;103221;-72
2021/06/27 10:03:44;;;;;;;2.73;2.50;;;;;;;24.10;41.97;100268.83;154006;1101;103560;-69
2021/06/27 10:06:53;;;;;;;4.47;2.30;;;;;;;24.00;42.42;100271.33;153823;1096;103249;-70
2021/06/27 10:09:58;;;;;;;2.80;2.60;;;;;;;24.07;43.32;100259.22;153850;1096;103139;-68
2021/06/27 10:13:02;;;;;;;3.65;2.60;;;;;;;24.15;42.30;100265.37;153811;1101;103199;-68
2021/06/27 10:16:06;;;;;;;2.70;2.50;;;;;;;24.32;43.11;100259.97;153908;1096;103227;-67
2021/06/27 10:19:09;;;;;;;2.60;2.40;;;;;;;24.39;42.57;100260.66;153959;1101;103142;-70
2021/06/27 10:22:12;;;;;;;2.70;2.40;;;;;;;24.21;42.61;100267.97;153867;1096;103126;-72
2021/06/27 10:25:16;;;;;;;2.70;2.50;;;;;;;24.07;41.76;100269.30;153946;1101;103144;-70
2021/06/27 10:28:20;;;;;;;3.60;2.35;;;;;;;24.02;42.84;100263.73;153824;1101;103585;-72
2021/06/27 10:31:25;;;;;;;3.63;2.77;;;;;;;24.10;43.14;100263.38;153877;1096;103172;-70
2021/06/27 10:34:28;;;;;;;4.07;2.70;;;;;;;24.30;43.32;100263.75;153907;1101;103235;-68
2021/06/27 10:37:36;;;;;;;3.65;2.55;;;;;;;24.37;42.67;100263.63;153991;1101;103346;-68
2021/06/27 10:40:53;;;;;;;2.77;2.50;;;;;;;24.43;43.53;100256.37;154024;1096;103238;-68
2021/06/27 10:44:06;;;;;;;3.17;2.60;;;;;;;24.56;42.02;100261.55;153880;1095;103211;-68
2021/06/27 10:47:28;;;;;;;3.70;2.67;;;;;;;24.74;42.87;100265.13;153870;1097;103105;-70
2021/06/27 10:50:52;;;;;;;3.40;3.10;;;;;;;25.06;43.42;100258.02;153828;1101;103655;-68
2021/06/27 10:54:15;;;;;;;3.13;2.80;;;;;;;25.18;42.96;100247.00;153829;1101;103276;-66
2021/06/27 10:57:20;;;;;;;3.90;2.70;;;;;;;25.23;40.74;100251.73;153862;1096;103259;-67
2021/06/27 11:00:24;;;;;;;2.70;2.50;;;;;;;25.00;41.89;100256.28;153833;1096;103244;-68
2021/06/27 11:03:31;;;;;;;2.83;2.40;;;;;;;24.84;41.80;100251.64;153804;1096;103155;-67
2021/06/27 11:06:38;;;;;;;3.10;2.63;;;;;;;24.79;42.58;100249.66;153847;1095;103490;-67
2021/06/27 11:09:41;;;;;;;4.40;2.80;;;;;;;24.98;42.58;100244.79;153876;1101;103269;-66
2021/06/27 11:13:13;;;;;;;3.50;2.83;;;;;;;25.16;42.26;100249.16;153835;1101;103139;-73
2021/06/27 11:16:21;;;;;;;3.05;2.80;;;;;;;25.11;40.84;100234.59;154110;1101;103221;-69
2021/06/27 11:19:28;;;;;;;2.70;2.50;;;;;;;25.21;42.51;100241.05;153847;1096;103228;-73
2021/06/27 11:22:45;;;;;;;2.57;2.37;;;;;;;25.16;41.84;100248.34;153881;1096;103196;-70
2021/06/27 11:25:48;;;;;;;2.63;2.43;;;;;;;25.08;40.48;100236.75;153772;1095;103792;-70
2021/06/27 11:28:52;;;;;;;2.60;2.40;;;;;;;25.19;42.62;100248.66;153951;1101;103201;-70
2021/06/27 11:32:16;;;;;;;3.40;2.60;;;;;;;25.41;41.20;100239.72;153898;1101;103142;-81
2021/06/27 11:35:41;;;;;;;2.70;2.40;;;;;;;25.39;41.92;100234.50;153898;1101;103171;-72
2021/06/27 11:38:45;;;;;;;3.00;2.70;;;;;;;25.18;40.28;100251.64;153818;1096;103139;-68
2021/06/27 11:41:48;;;;;;;2.88;2.60;;;;;;;24.82;41.01;100234.69;153896;1101;103219;-71
2021/06/27 11:45:32;;;;;;;2.67;2.33;;;;;;;24.68;41.90;100236.92;153906;1101;103142;-73
2021/06/27 11:48:44;;;;;;;2.70;2.50;;;;;;;24.66;41.98;100222.70;154033;1101;103195;-72
2021/06/27 11:51:49;;;;;;;3.90;2.50;;;;;;;24.81;41.36;100227.59;153998;1101;103129;-72
2021/06/27 11:54:53;;;;;;;2.65;2.40;;;;;;;24.95;42.34;100223.44;154220;1096;103131;-72
2021/06/27 11:57:56;;;;;;;3.08;2.55;;;;;;;25.06;41.74;100211.60;154120;1095;103288;-72
2021/06/27 12:01:09;;;;;;;2.97;2.43;;;;;;;25.08;41.89;100209.45;154082;1101;103194;-71
2021/06/27 12:04:12;;;;;;;2.70;2.50;;;;;;;25.11;42.21;100213.57;153803;1101;103128;-71
2021/06/27 12:07:36;;;;;;;3.70;2.23;;;;;;;25.19;40.50;100215.90;154021;1101;103233;-72
2021/06/27 12:10:40;;;;;;;2.70;2.45;;;;;;;25.16;41.60;100201.91;154152;1101;103147;-71
2021/06/27 12:13:44;;;;;;;2.93;2.50;;;;;;;25.09;41.98;100211.08;154021;1095;103272;-71
2021/06/27 12:16:47;;;;;;;3.38;2.60;;;;;;;25.04;41.16;100213.76;154120;1095;103202;-72
2021/06/27 12:19:52;;;;;;;2.60;2.37;;;;;;;24.89;41.44;100211.61;154086;1095;103128;-72
2021/06/27 12:22:57;;;;;;;6.27;2.33;;;;;;;24.71;41.26;100211.84;154036;1101;103524;-72
2021/06/27 12:26:03;;;;;;;2.53;2.33;;;;;;;24.78;41.18;100208.97;154029;1101;103175;-71
2021/06/27 12:29:09;;;;;;;2.50;2.30;;;;;;;24.84;42.09;100210.70;153981;1096;103566;-73
2021/06/27 12:32:12;;;;;;;2.30;2.10;;;;;;;24.89;40.92;100208.06;154033;1097;103217;-73
2021/06/27 12:35:15;;;;;;;3.93;2.50;;;;;;;24.76;40.64;100205.67;153990;1095;103132;-72
2021/06/27 12:38:19;;;;;;;2.78;2.13;;;;;;;24.55;41.09;100216.23;154100;1101;103132;-71
2021/06/27 12:41:24;;;;;;;3.18;2.35;;;;;;;24.55;42.01;100202.59;153911;1096;103114;-70
2021/06/27 12:44:27;;;;;;;3.00;2.47;;;;;;;24.61;41.50;100198.05;153850;1101;103442;-69
2021/06/27 12:47:30;;;;;;;2.65;2.40;;;;;;;24.56;41.05;100206.98;153837;1101;103126;-70
2021/06/27 12:50:38;;;;;;;3.80;2.40;;;;;;;24.52;41.25;100205.83;153790;1097;103122;-69
2021/06/27 12:53:41;;;;;;;2.40;2.20;;;;;;;24.55;42.19;100207.23;153846;1101;103169;-69
2021/06/27 12:56:53;;;;;;;2.50;2.30;;;;;;;24.54;41.28;100214.59;153859;1101;103139;-71
2021/06/27 12:59:57;;;;;;;3.18;2.40;;;;;;;24.46;41.51;100206.77;153736;1096;103185;-69
2021/06/27 13:03:16;;;;;;;4.13;2.40;;;;;;;24.47;41.06;100201.06;153647;1097;103259;-70
2021/06/27 13:06:19;;;;;;;2.60;2.40;;;;;;;24.48;41.29;100202.73;153926;1096;103061;-68
2021/06/27 13:09:22;;;;;;;5.00;2.70;;;;;;;24.49;41.49;100200.83;153782;1096;103131;-67
2021/06/27 13:12:25;;;;;;;2.70;2.03;;;;;;;24.61;41.93;100198.87;153712;1096;103165;-66
2021/06/27 13:15:36;;;;;;;3.20;2.23;;;;;;;24.68;41.22;100194.09;153765;1095;103224;-69
2021/06/27 13:18:39;;;;;;;2.30;2.10;;;;;;;24.55;40.93;100194.41;154156;1096;103195;-69
2021/06/27 13:21:42;;;;;;;2.50;2.30;;;;;;;24.54;41.55;100189.19;153879;1095;103585;-70
2021/06/27 13:24:59;;;;;;;2.50;2.30;;;;;;;24.59;40.98;100183.83;153794;1097;103128;-69
2021/06/27 13:28:03;;;;;;;3.00;2.57;;;;;;;24.39;41.46;100190.57;153973;1096;103145;-69
2021/06/27 13:31:08;;;;;;;2.75;2.50;;;;;;;24.37;40.51;100180.99;154001;1101;103305;-69
2021/06/27 13:34:11;;;;;;;2.50;2.20;;;;;;;24.36;40.94;100191.05;153886;1101;103221;-69
2021/06/27 13:37:13;;;;;;;2.57;2.10;;;;;;;24.32;40.93;100189.89;153803;1101;103136;-69
2021/06/27 13:40:17;;;;;;;2.43;2.20;;;;;;;24.28;39.88;100195.00;153791;1097;103136;-68
2021/06/27 13:43:20;;;;;;;2.08;1.98;;;;;;;24.34;41.62;100184.20;153836;1095;103142;-68
2021/06/27 13:46:24;;;;;;;2.38;2.18;;;;;;;24.42;41.08;100190.09;153799;1101;103215;-69
2021/06/27 13:49:27;;;;;;;3.80;2.23;;;;;;;24.38;41.14;100188.08;153820;1095;103102;-69
2021/06/27 13:52:31;;;;;;;2.30;2.10;;;;;;;24.25;40.70;100181.88;153849;1096;103195;-70
2021/06/27 13:55:34;;;;;;;2.20;2.00;;;;;;;24.22;39.20;100185.08;153826;1101;103147;-70